sensor_id;sensor_type;location;lat;lon;timestamp;P1;durP1;ratioP1;P2;durP2;ratioP2
51556;SDS011;38766;53.194;5.532;2022-11-20T00:01:24;10.50;;;7.15;;
51556;SDS011;38766;53.194;5.532;2022-11-20T00:03:51;11.63;;;7.25;;
51556;SDS011;38766;53.194;5.532;2022-11-20T00:06:19;12.23;;;7.15;;
51556;SDS011;38766;53.194;5.532;2022-11-20T00:08:45;10.65;;;6.97;;
51556;SDS011;38766;53.194;5.532;2022-11-20T00:11:13;11.20;;;7.72;;
51556;SDS011;38766;53.194;5.532;2022-11-20T00:13:42;11.88;;;7.20;;
51556;SDS011;38766;53.194;5.532;2022-11-20T00:16:09;12.27;;;7.47;;
51556;SDS011;38766;53.194;5.532;2022-11-20T00:18:36;11.35;;;7.55;;
51556;SDS011;38766;53.194;5.532;2022-11-20T00:21:02;11.10;;;7.10;;
51556;SDS011;38766;53.194;5.532;2022-11-20T00:23:29;12.68;;;7.80;;
51556;SDS011;38766;53.194;5.532;2022-11-20T00:25:55;11.50;;;7.18;;
51556;SDS011;38766;53.194;5.532;2022-11-20T00:28:21;10.95;;;6.93;;
51556;SDS011;38766;53.194;5.532;2022-11-20T00:30:46;12.07;;;6.82;;
51556;SDS011;38766;53.194;5.532;2022-11-20T00:33:12;10.85;;;7.10;;
51556;SDS011;38766;53.194;5.532;2022-11-20T00:35:37;11.02;;;6.78;;
51556;SDS011;38766;53.194;5.532;2022-11-20T00:38:03;11.55;;;7.00;;
51556;SDS011;38766;53.194;5.532;2022-11-20T00:40:29;12.63;;;7.40;;
51556;SDS011;38766;53.194;5.532;2022-11-20T00:43:00;12.23;;;8.13;;
51556;SDS011;38766;53.194;5.532;2022-11-20T00:45:25;9.95;;;7.22;;
51556;SDS011;38766;53.194;5.532;2022-11-20T00:47:51;11.20;;;6.95;;
51556;SDS011;38766;53.194;5.532;2022-11-20T00:50:18;12.77;;;7.53;;
51556;SDS011;38766;53.194;5.532;2022-11-20T00:52:43;12.20;;;7.05;;
51556;SDS011;38766;53.194;5.532;2022-11-20T00:55:09;12.13;;;7.40;;
51556;SDS011;38766;53.194;5.532;2022-11-20T00:57:34;12.80;;;7.38;;
51556;SDS011;38766;53.194;5.532;2022-11-20T01:00:00;11.82;;;7.63;;
51556;SDS011;38766;53.194;5.532;2022-11-20T01:02:26;12.15;;;7.80;;
51556;SDS011;38766;53.194;5.532;2022-11-20T01:04:51;14.27;;;8.05;;
51556;SDS011;38766;53.194;5.532;2022-11-20T01:07:17;11.93;;;7.75;;
51556;SDS011;38766;53.194;5.532;2022-11-20T01:09:42;11.95;;;7.30;;
51556;SDS011;38766;53.194;5.532;2022-11-20T01:12:08;11.57;;;7.43;;
51556;SDS011;38766;53.194;5.532;2022-11-20T01:14:33;11.02;;;6.90;;
51556;SDS011;38766;53.194;5.532;2022-11-20T01:16:59;12.27;;;7.47;;
51556;SDS011;38766;53.194;5.532;2022-11-20T01:19:25;12.45;;;7.45;;
51556;SDS011;38766;53.194;5.532;2022-11-20T01:21:51;11.68;;;7.97;;
51556;SDS011;38766;53.194;5.532;2022-11-20T01:24:19;12.52;;;7.93;;
51556;SDS011;38766;53.194;5.532;2022-11-20T01:26:46;9.75;;;6.93;;
51556;SDS011;38766;53.194;5.532;2022-11-20T01:29:15;12.77;;;7.22;;
51556;SDS011;38766;53.194;5.532;2022-11-20T01:31:42;13.40;;;7.25;;
51556;SDS011;38766;53.194;5.532;2022-11-20T01:34:10;12.18;;;7.53;;
51556;SDS011;38766;53.194;5.532;2022-11-20T01:36:38;12.40;;;7.78;;
51556;SDS011;38766;53.194;5.532;2022-11-20T01:39:10;13.45;;;8.90;;
51556;SDS011;38766;53.194;5.532;2022-11-20T01:41:44;12.23;;;8.38;;
51556;SDS011;38766;53.194;5.532;2022-11-20T01:44:48;12.57;;;7.88;;
51556;SDS011;38766;53.194;5.532;2022-11-20T01:47:16;12.52;;;7.90;;
51556;SDS011;38766;53.194;5.532;2022-11-20T01:49:50;13.25;;;8.40;;
51556;SDS011;38766;53.194;5.532;2022-11-20T01:52:41;13.73;;;8.70;;
51556;SDS011;38766;53.194;5.532;2022-11-20T01:55:13;12.90;;;8.02;;
51556;SDS011;38766;53.194;5.532;2022-11-20T01:57:44;11.80;;;7.85;;
51556;SDS011;38766;53.194;5.532;2022-11-20T02:00:13;12.07;;;7.60;;
51556;SDS011;38766;53.194;5.532;2022-11-20T02:02:41;13.02;;;8.27;;
51556;SDS011;38766;53.194;5.532;2022-11-20T02:05:24;11.10;;;6.82;;
51556;SDS011;38766;53.194;5.532;2022-11-20T02:07:57;11.95;;;8.00;;
51556;SDS011;38766;53.194;5.532;2022-11-20T02:10:26;11.32;;;7.78;;
51556;SDS011;38766;53.194;5.532;2022-11-20T02:12:53;10.93;;;7.22;;
51556;SDS011;38766;53.194;5.532;2022-11-20T02:15:37;12.02;;;7.60;;
51556;SDS011;38766;53.194;5.532;2022-11-20T02:18:03;12.77;;;7.65;;
51556;SDS011;38766;53.194;5.532;2022-11-20T02:20:31;10.98;;;7.05;;
51556;SDS011;38766;53.194;5.532;2022-11-20T02:25:27;11.60;;;7.15;;
51556;SDS011;38766;53.194;5.532;2022-11-20T02:27:55;12.27;;;7.70;;
51556;SDS011;38766;53.194;5.532;2022-11-20T02:30:21;11.65;;;7.75;;
51556;SDS011;38766;53.194;5.532;2022-11-20T02:32:46;11.90;;;7.57;;
51556;SDS011;38766;53.194;5.532;2022-11-20T02:37:44;10.27;;;6.78;;
51556;SDS011;38766;53.194;5.532;2022-11-20T02:40:11;11.13;;;6.88;;
51556;SDS011;38766;53.194;5.532;2022-11-20T02:42:37;10.10;;;6.75;;
51556;SDS011;38766;53.194;5.532;2022-11-20T02:45:04;12.15;;;7.60;;
51556;SDS011;38766;53.194;5.532;2022-11-20T02:47:30;11.70;;;7.15;;
51556;SDS011;38766;53.194;5.532;2022-11-20T02:49:56;10.52;;;6.75;;
51556;SDS011;38766;53.194;5.532;2022-11-20T02:52:21;11.73;;;7.10;;
51556;SDS011;38766;53.194;5.532;2022-11-20T02:54:47;12.75;;;7.88;;
51556;SDS011;38766;53.194;5.532;2022-11-20T02:57:13;12.07;;;7.45;;
51556;SDS011;38766;53.194;5.532;2022-11-20T02:59:38;11.50;;;7.40;;
51556;SDS011;38766;53.194;5.532;2022-11-20T03:02:07;11.00;;;7.20;;
51556;SDS011;38766;53.194;5.532;2022-11-20T03:04:33;10.43;;;6.72;;
51556;SDS011;38766;53.194;5.532;2022-11-20T03:06:58;13.82;;;7.47;;
51556;SDS011;38766;53.194;5.532;2022-11-20T03:09:24;12.13;;;7.20;;
51556;SDS011;38766;53.194;5.532;2022-11-20T03:11:49;12.43;;;7.43;;
51556;SDS011;38766;53.194;5.532;2022-11-20T03:14:15;13.13;;;7.22;;
51556;SDS011;38766;53.194;5.532;2022-11-20T03:16:41;10.90;;;7.38;;
51556;SDS011;38766;53.194;5.532;2022-11-20T03:19:06;12.57;;;7.47;;
51556;SDS011;38766;53.194;5.532;2022-11-20T03:21:32;12.02;;;7.57;;
51556;SDS011;38766;53.194;5.532;2022-11-20T03:23:58;11.43;;;7.38;;
51556;SDS011;38766;53.194;5.532;2022-11-20T03:26:25;13.10;;;7.68;;
51556;SDS011;38766;53.194;5.532;2022-11-20T03:28:53;12.45;;;8.43;;
51556;SDS011;38766;53.194;5.532;2022-11-20T03:31:24;15.20;;;8.05;;
51556;SDS011;38766;53.194;5.532;2022-11-20T03:33:51;13.07;;;7.60;;
51556;SDS011;38766;53.194;5.532;2022-11-20T03:36:24;11.23;;;7.28;;
51556;SDS011;38766;53.194;5.532;2022-11-20T03:38:49;11.95;;;7.43;;
51556;SDS011;38766;53.194;5.532;2022-11-20T03:41:17;11.52;;;7.35;;
51556;SDS011;38766;53.194;5.532;2022-11-20T03:43:48;12.68;;;7.68;;
51556;SDS011;38766;53.194;5.532;2022-11-20T03:46:15;10.52;;;7.50;;
51556;SDS011;38766;53.194;5.532;2022-11-20T03:48:41;12.57;;;7.70;;
51556;SDS011;38766;53.194;5.532;2022-11-20T03:51:11;10.27;;;6.97;;
51556;SDS011;38766;53.194;5.532;2022-11-20T03:53:44;11.77;;;7.20;;
51556;SDS011;38766;53.194;5.532;2022-11-20T03:56:11;13.90;;;8.40;;
51556;SDS011;38766;53.194;5.532;2022-11-20T03:58:39;11.95;;;7.20;;
51556;SDS011;38766;53.194;5.532;2022-11-20T04:01:09;10.55;;;7.13;;
51556;SDS011;38766;53.194;5.532;2022-11-20T04:03:37;11.77;;;7.28;;
51556;SDS011;38766;53.194;5.532;2022-11-20T04:06:08;10.13;;;7.07;;
51556;SDS011;38766;53.194;5.532;2022-11-20T04:08:36;11.45;;;7.57;;
51556;SDS011;38766;53.194;5.532;2022-11-20T04:11:11;10.60;;;7.30;;
51556;SDS011;38766;53.194;5.532;2022-11-20T04:13:38;11.30;;;7.20;;
51556;SDS011;38766;53.194;5.532;2022-11-20T04:16:04;14.65;;;7.00;;
51556;SDS011;38766;53.194;5.532;2022-11-20T04:18:30;10.45;;;6.65;;
51556;SDS011;38766;53.194;5.532;2022-11-20T04:20:57;13.25;;;7.40;;
51556;SDS011;38766;53.194;5.532;2022-11-20T04:23:23;13.73;;;8.52;;
51556;SDS011;38766;53.194;5.532;2022-11-20T04:25:49;14.45;;;8.10;;
51556;SDS011;38766;53.194;5.532;2022-11-20T04:28:15;11.52;;;7.32;;
51556;SDS011;38766;53.194;5.532;2022-11-20T04:30:40;13.15;;;6.90;;
51556;SDS011;38766;53.194;5.532;2022-11-20T04:33:06;11.88;;;7.10;;
51556;SDS011;38766;53.194;5.532;2022-11-20T04:35:33;11.15;;;7.20;;
51556;SDS011;38766;53.194;5.532;2022-11-20T04:37:59;11.20;;;7.57;;
51556;SDS011;38766;53.194;5.532;2022-11-20T04:40:25;10.52;;;6.72;;
51556;SDS011;38766;53.194;5.532;2022-11-20T04:42:51;10.50;;;6.82;;
51556;SDS011;38766;53.194;5.532;2022-11-20T04:45:16;11.00;;;7.10;;
51556;SDS011;38766;53.194;5.532;2022-11-20T04:47:42;12.27;;;7.15;;
51556;SDS011;38766;53.194;5.532;2022-11-20T04:50:08;12.38;;;6.80;;
51556;SDS011;38766;53.194;5.532;2022-11-20T04:52:34;12.20;;;7.78;;
51556;SDS011;38766;53.194;5.532;2022-11-20T04:55:00;10.98;;;6.93;;
51556;SDS011;38766;53.194;5.532;2022-11-20T04:57:29;10.65;;;7.00;;
51556;SDS011;38766;53.194;5.532;2022-11-20T04:59:54;11.18;;;6.63;;
51556;SDS011;38766;53.194;5.532;2022-11-20T05:02:20;11.93;;;6.97;;
51556;SDS011;38766;53.194;5.532;2022-11-20T05:04:46;10.48;;;6.65;;
51556;SDS011;38766;53.194;5.532;2022-11-20T05:07:11;11.38;;;7.32;;
51556;SDS011;38766;53.194;5.532;2022-11-20T05:09:37;12.30;;;7.40;;
51556;SDS011;38766;53.194;5.532;2022-11-20T05:12:03;13.35;;;7.05;;
51556;SDS011;38766;53.194;5.532;2022-11-20T05:14:34;11.88;;;7.95;;
51556;SDS011;38766;53.194;5.532;2022-11-20T05:17:00;12.60;;;7.65;;
51556;SDS011;38766;53.194;5.532;2022-11-20T05:19:25;11.25;;;7.40;;
51556;SDS011;38766;53.194;5.532;2022-11-20T05:21:51;10.38;;;7.18;;
51556;SDS011;38766;53.194;5.532;2022-11-20T05:24:17;10.98;;;7.13;;
51556;SDS011;38766;53.194;5.532;2022-11-20T05:26:42;11.55;;;7.00;;
51556;SDS011;38766;53.194;5.532;2022-11-20T05:29:12;11.05;;;6.68;;
51556;SDS011;38766;53.194;5.532;2022-11-20T05:31:38;11.10;;;7.00;;
51556;SDS011;38766;53.194;5.532;2022-11-20T05:34:05;11.38;;;7.40;;
51556;SDS011;38766;53.194;5.532;2022-11-20T05:36:31;10.93;;;7.28;;
51556;SDS011;38766;53.194;5.532;2022-11-20T05:38:57;10.23;;;6.97;;
51556;SDS011;38766;53.194;5.532;2022-11-20T05:41:26;13.35;;;7.55;;
51556;SDS011;38766;53.194;5.532;2022-11-20T05:43:51;11.25;;;7.45;;
51556;SDS011;38766;53.194;5.532;2022-11-20T05:46:18;12.82;;;7.13;;
51556;SDS011;38766;53.194;5.532;2022-11-20T05:48:45;12.45;;;7.30;;
51556;SDS011;38766;53.194;5.532;2022-11-20T05:51:12;11.45;;;7.18;;
51556;SDS011;38766;53.194;5.532;2022-11-20T05:53:39;12.38;;;7.80;;
51556;SDS011;38766;53.194;5.532;2022-11-20T05:56:06;12.05;;;7.18;;
51556;SDS011;38766;53.194;5.532;2022-11-20T05:58:35;11.57;;;7.82;;
51556;SDS011;38766;53.194;5.532;2022-11-20T06:03:33;11.35;;;7.18;;
51556;SDS011;38766;53.194;5.532;2022-11-20T06:06:00;13.82;;;7.75;;
51556;SDS011;38766;53.194;5.532;2022-11-20T06:08:26;13.48;;;7.70;;
51556;SDS011;38766;53.194;5.532;2022-11-20T06:10:52;13.65;;;8.25;;
51556;SDS011;38766;53.194;5.532;2022-11-20T06:13:18;12.30;;;8.18;;
51556;SDS011;38766;53.194;5.532;2022-11-20T06:15:49;13.13;;;7.80;;
51556;SDS011;38766;53.194;5.532;2022-11-20T06:18:15;11.45;;;7.38;;
51556;SDS011;38766;53.194;5.532;2022-11-20T06:20:41;15.90;;;9.00;;
51556;SDS011;38766;53.194;5.532;2022-11-20T06:23:10;16.70;;;9.05;;
51556;SDS011;38766;53.194;5.532;2022-11-20T06:25:42;18.50;;;10.65;;
51556;SDS011;38766;53.194;5.532;2022-11-20T06:28:08;17.67;;;10.68;;
51556;SDS011;38766;53.194;5.532;2022-11-20T06:30:34;19.55;;;11.63;;
51556;SDS011;38766;53.194;5.532;2022-11-20T06:33:00;16.52;;;10.30;;
51556;SDS011;38766;53.194;5.532;2022-11-20T06:35:26;16.38;;;9.82;;
51556;SDS011;38766;53.194;5.532;2022-11-20T06:37:52;16.42;;;9.75;;
51556;SDS011;38766;53.194;5.532;2022-11-20T06:40:17;14.75;;;8.85;;
51556;SDS011;38766;53.194;5.532;2022-11-20T06:42:43;12.77;;;8.02;;
51556;SDS011;38766;53.194;5.532;2022-11-20T06:45:09;14.18;;;8.75;;
51556;SDS011;38766;53.194;5.532;2022-11-20T06:47:34;12.98;;;8.38;;
51556;SDS011;38766;53.194;5.532;2022-11-20T06:50:00;13.02;;;7.50;;
51556;SDS011;38766;53.194;5.532;2022-11-20T06:52:26;15.18;;;7.97;;
51556;SDS011;38766;53.194;5.532;2022-11-20T06:54:51;12.68;;;7.65;;
51556;SDS011;38766;53.194;5.532;2022-11-20T06:57:17;11.52;;;7.47;;
51556;SDS011;38766;53.194;5.532;2022-11-20T06:59:42;13.52;;;8.40;;
51556;SDS011;38766;53.194;5.532;2022-11-20T07:02:11;10.13;;;7.45;;
51556;SDS011;38766;53.194;5.532;2022-11-20T07:04:37;11.60;;;7.60;;
51556;SDS011;38766;53.194;5.532;2022-11-20T07:07:04;10.75;;;7.55;;
51556;SDS011;38766;53.194;5.532;2022-11-20T07:09:31;14.52;;;7.22;;
51556;SDS011;38766;53.194;5.532;2022-11-20T07:11:57;13.20;;;8.30;;
51556;SDS011;38766;53.194;5.532;2022-11-20T07:14:23;14.45;;;8.80;;
51556;SDS011;38766;53.194;5.532;2022-11-20T07:16:48;15.00;;;8.70;;
51556;SDS011;38766;53.194;5.532;2022-11-20T07:19:14;11.05;;;7.80;;
51556;SDS011;38766;53.194;5.532;2022-11-20T07:21:40;11.15;;;7.28;;
51556;SDS011;38766;53.194;5.532;2022-11-20T07:24:05;13.07;;;7.45;;
51556;SDS011;38766;53.194;5.532;2022-11-20T07:26:31;11.10;;;7.75;;
51556;SDS011;38766;53.194;5.532;2022-11-20T07:28:56;11.88;;;7.53;;
51556;SDS011;38766;53.194;5.532;2022-11-20T07:31:22;13.13;;;7.93;;
51556;SDS011;38766;53.194;5.532;2022-11-20T07:33:48;13.05;;;7.55;;
51556;SDS011;38766;53.194;5.532;2022-11-20T07:36:13;11.32;;;7.53;;
51556;SDS011;38766;53.194;5.532;2022-11-20T07:38:39;11.60;;;7.20;;
51556;SDS011;38766;53.194;5.532;2022-11-20T07:41:17;12.05;;;7.60;;
51556;SDS011;38766;53.194;5.532;2022-11-20T07:43:42;11.32;;;7.15;;
51556;SDS011;38766;53.194;5.532;2022-11-20T07:46:08;10.30;;;7.15;;
51556;SDS011;38766;53.194;5.532;2022-11-20T07:48:36;13.27;;;7.15;;
51556;SDS011;38766;53.194;5.532;2022-11-20T07:51:02;12.52;;;7.72;;
51556;SDS011;38766;53.194;5.532;2022-11-20T07:53:27;10.35;;;7.07;;
51556;SDS011;38766;53.194;5.532;2022-11-20T07:55:53;11.50;;;7.50;;
51556;SDS011;38766;53.194;5.532;2022-11-20T07:58:19;10.88;;;7.35;;
51556;SDS011;38766;53.194;5.532;2022-11-20T08:00:45;11.32;;;7.40;;
51556;SDS011;38766;53.194;5.532;2022-11-20T08:03:11;12.18;;;8.23;;
51556;SDS011;38766;53.194;5.532;2022-11-20T08:05:37;16.30;;;8.88;;
51556;SDS011;38766;53.194;5.532;2022-11-20T08:08:02;12.40;;;8.32;;
51556;SDS011;38766;53.194;5.532;2022-11-20T08:10:28;14.60;;;8.90;;
51556;SDS011;38766;53.194;5.532;2022-11-20T08:12:54;11.40;;;7.82;;
51556;SDS011;38766;53.194;5.532;2022-11-20T08:15:38;14.20;;;8.52;;
51556;SDS011;38766;53.194;5.532;2022-11-20T08:18:06;12.80;;;8.70;;
51556;SDS011;38766;53.194;5.532;2022-11-20T08:20:36;15.63;;;8.98;;
51556;SDS011;38766;53.194;5.532;2022-11-20T08:23:03;13.00;;;8.27;;
51556;SDS011;38766;53.194;5.532;2022-11-20T08:25:31;15.05;;;8.95;;
51556;SDS011;38766;53.194;5.532;2022-11-20T08:28:01;12.93;;;8.23;;
51556;SDS011;38766;53.194;5.532;2022-11-20T08:30:29;12.27;;;7.57;;
51556;SDS011;38766;53.194;5.532;2022-11-20T08:33:00;11.23;;;7.88;;
51556;SDS011;38766;53.194;5.532;2022-11-20T08:35:27;14.98;;;8.23;;
51556;SDS011;38766;53.194;5.532;2022-11-20T08:37:52;11.07;;;7.82;;
51556;SDS011;38766;53.194;5.532;2022-11-20T08:40:18;12.88;;;8.57;;
51556;SDS011;38766;53.194;5.532;2022-11-20T08:42:47;13.45;;;8.55;;
51556;SDS011;38766;53.194;5.532;2022-11-20T08:45:14;14.95;;;9.25;;
51556;SDS011;38766;53.194;5.532;2022-11-20T08:47:40;14.55;;;9.18;;
51556;SDS011;38766;53.194;5.532;2022-11-20T08:50:07;14.73;;;9.52;;
51556;SDS011;38766;53.194;5.532;2022-11-20T08:52:36;12.85;;;8.80;;
51556;SDS011;38766;53.194;5.532;2022-11-20T08:55:03;14.65;;;9.10;;
51556;SDS011;38766;53.194;5.532;2022-11-20T08:57:31;14.77;;;10.00;;
51556;SDS011;38766;53.194;5.532;2022-11-20T09:00:00;13.02;;;8.25;;
51556;SDS011;38766;53.194;5.532;2022-11-20T09:02:26;15.10;;;8.77;;
51556;SDS011;38766;53.194;5.532;2022-11-20T09:04:52;16.88;;;9.68;;
51556;SDS011;38766;53.194;5.532;2022-11-20T09:07:18;12.60;;;8.40;;
51556;SDS011;38766;53.194;5.532;2022-11-20T09:09:44;14.98;;;9.60;;
51556;SDS011;38766;53.194;5.532;2022-11-20T09:12:10;14.23;;;8.88;;
51556;SDS011;38766;53.194;5.532;2022-11-20T09:14:35;13.82;;;8.82;;
51556;SDS011;38766;53.194;5.532;2022-11-20T09:17:01;15.50;;;9.50;;
51556;SDS011;38766;53.194;5.532;2022-11-20T09:19:27;13.00;;;8.57;;
51556;SDS011;38766;53.194;5.532;2022-11-20T09:21:52;12.82;;;8.82;;
51556;SDS011;38766;53.194;5.532;2022-11-20T09:24:18;12.88;;;8.73;;
51556;SDS011;38766;53.194;5.532;2022-11-20T09:26:46;14.15;;;9.32;;
51556;SDS011;38766;53.194;5.532;2022-11-20T09:29:11;14.65;;;9.45;;
51556;SDS011;38766;53.194;5.532;2022-11-20T09:31:37;13.35;;;8.77;;
51556;SDS011;38766;53.194;5.532;2022-11-20T09:34:03;14.93;;;9.70;;
51556;SDS011;38766;53.194;5.532;2022-11-20T09:36:28;13.55;;;9.43;;
51556;SDS011;38766;53.194;5.532;2022-11-20T09:38:54;12.50;;;8.43;;
51556;SDS011;38766;53.194;5.532;2022-11-20T09:44:26;12.80;;;8.82;;
51556;SDS011;38766;53.194;5.532;2022-11-20T09:50:28;13.82;;;9.07;;
51556;SDS011;38766;53.194;5.532;2022-11-20T09:53:12;15.73;;;10.32;;
51556;SDS011;38766;53.194;5.532;2022-11-20T09:55:59;12.10;;;8.85;;
51556;SDS011;38766;53.194;5.532;2022-11-20T09:58:35;15.88;;;8.98;;
51556;SDS011;38766;53.194;5.532;2022-11-20T10:01:14;13.27;;;9.32;;
51556;SDS011;38766;53.194;5.532;2022-11-20T10:06:14;12.85;;;8.70;;
51556;SDS011;38766;53.194;5.532;2022-11-20T10:08:44;11.15;;;8.30;;
51556;SDS011;38766;53.194;5.532;2022-11-20T10:11:21;16.88;;;8.50;;
51556;SDS011;38766;53.194;5.532;2022-11-20T10:16:42;13.00;;;8.60;;
51556;SDS011;38766;53.194;5.532;2022-11-20T10:19:45;13.73;;;8.50;;
51556;SDS011;38766;53.194;5.532;2022-11-20T10:22:52;14.02;;;7.88;;
51556;SDS011;38766;53.194;5.532;2022-11-20T10:25:41;9.65;;;7.32;;
51556;SDS011;38766;53.194;5.532;2022-11-20T10:28:18;11.23;;;7.97;;
51556;SDS011;38766;53.194;5.532;2022-11-20T10:30:48;12.73;;;8.75;;
51556;SDS011;38766;53.194;5.532;2022-11-20T10:33:26;11.70;;;8.27;;
51556;SDS011;38766;53.194;5.532;2022-11-20T10:38:54;12.00;;;8.32;;
51556;SDS011;38766;53.194;5.532;2022-11-20T10:41:26;13.70;;;8.43;;
51556;SDS011;38766;53.194;5.532;2022-11-20T10:47:02;12.65;;;8.70;;
51556;SDS011;38766;53.194;5.532;2022-11-20T10:49:29;12.48;;;8.40;;
51556;SDS011;38766;53.194;5.532;2022-11-20T10:52:12;13.90;;;8.52;;
51556;SDS011;38766;53.194;5.532;2022-11-20T11:00:36;12.18;;;8.90;;
51556;SDS011;38766;53.194;5.532;2022-11-20T11:03:02;14.07;;;9.48;;
51556;SDS011;38766;53.194;5.532;2022-11-20T11:08:09;12.35;;;8.60;;
51556;SDS011;38766;53.194;5.532;2022-11-20T11:10:51;12.85;;;8.90;;
51556;SDS011;38766;53.194;5.532;2022-11-20T11:13:20;14.27;;;9.93;;
51556;SDS011;38766;53.194;5.532;2022-11-20T11:15:54;14.48;;;8.73;;
51556;SDS011;38766;53.194;5.532;2022-11-20T11:18:38;12.25;;;8.90;;
51556;SDS011;38766;53.194;5.532;2022-11-20T11:21:04;15.73;;;9.77;;
51556;SDS011;38766;53.194;5.532;2022-11-20T11:23:38;12.60;;;8.82;;
51556;SDS011;38766;53.194;5.532;2022-11-20T11:26:06;14.60;;;9.57;;
51556;SDS011;38766;53.194;5.532;2022-11-20T11:28:52;14.55;;;9.63;;
51556;SDS011;38766;53.194;5.532;2022-11-20T11:31:26;13.75;;;8.52;;
51556;SDS011;38766;53.194;5.532;2022-11-20T11:36:39;11.35;;;8.65;;
51556;SDS011;38766;53.194;5.532;2022-11-20T11:39:05;11.02;;;8.35;;
51556;SDS011;38766;53.194;5.532;2022-11-20T11:41:39;13.43;;;8.52;;
51556;SDS011;38766;53.194;5.532;2022-11-20T11:44:15;13.13;;;8.85;;
51556;SDS011;38766;53.194;5.532;2022-11-20T11:47:03;10.65;;;7.82;;
51556;SDS011;38766;53.194;5.532;2022-11-20T11:49:35;11.20;;;8.38;;
51556;SDS011;38766;53.194;5.532;2022-11-20T11:52:20;16.05;;;9.73;;
51556;SDS011;38766;53.194;5.532;2022-11-20T11:54:55;13.25;;;9.15;;
51556;SDS011;38766;53.194;5.532;2022-11-20T11:57:26;13.70;;;9.07;;
51556;SDS011;38766;53.194;5.532;2022-11-20T12:05:19;13.35;;;8.30;;
51556;SDS011;38766;53.194;5.532;2022-11-20T12:10:19;13.70;;;8.82;;
51556;SDS011;38766;53.194;5.532;2022-11-20T12:13:02;11.52;;;7.90;;
51556;SDS011;38766;53.194;5.532;2022-11-20T12:15:37;14.98;;;9.13;;
51556;SDS011;38766;53.194;5.532;2022-11-20T12:18:14;10.85;;;7.75;;
51556;SDS011;38766;53.194;5.532;2022-11-20T12:20:45;14.20;;;8.25;;
51556;SDS011;38766;53.194;5.532;2022-11-20T12:26:11;11.63;;;7.97;;
51556;SDS011;38766;53.194;5.532;2022-11-20T12:29:00;12.55;;;8.55;;
51556;SDS011;38766;53.194;5.532;2022-11-20T12:37:23;11.32;;;7.80;;
51556;SDS011;38766;53.194;5.532;2022-11-20T12:39:52;10.52;;;7.57;;
51556;SDS011;38766;53.194;5.532;2022-11-20T12:45:42;9.43;;;6.90;;
51556;SDS011;38766;53.194;5.532;2022-11-20T12:48:34;10.60;;;7.18;;
51556;SDS011;38766;53.194;5.532;2022-11-20T12:56:36;9.80;;;7.28;;
51556;SDS011;38766;53.194;5.532;2022-11-20T13:06:55;11.88;;;7.75;;
51556;SDS011;38766;53.194;5.532;2022-11-20T13:09:22;9.85;;;6.70;;
51556;SDS011;38766;53.194;5.532;2022-11-20T13:17:22;12.40;;;7.38;;
51556;SDS011;38766;53.194;5.532;2022-11-20T13:19:53;11.48;;;6.70;;
51556;SDS011;38766;53.194;5.532;2022-11-20T13:22:24;12.02;;;6.72;;
51556;SDS011;38766;53.194;5.532;2022-11-20T13:24:54;13.63;;;7.82;;
51556;SDS011;38766;53.194;5.532;2022-11-20T13:27:23;12.73;;;7.82;;
51556;SDS011;38766;53.194;5.532;2022-11-20T13:30:12;12.10;;;7.68;;
51556;SDS011;38766;53.194;5.532;2022-11-20T13:32:47;11.23;;;7.88;;
51556;SDS011;38766;53.194;5.532;2022-11-20T13:35:30;12.65;;;8.13;;
51556;SDS011;38766;53.194;5.532;2022-11-20T13:40:54;12.48;;;7.55;;
51556;SDS011;38766;53.194;5.532;2022-11-20T13:46:04;13.18;;;8.27;;
51556;SDS011;38766;53.194;5.532;2022-11-20T13:48:32;11.00;;;7.18;;
51556;SDS011;38766;53.194;5.532;2022-11-20T13:56:40;12.57;;;7.95;;
51556;SDS011;38766;53.194;5.532;2022-11-20T14:01:53;11.27;;;6.95;;
51556;SDS011;38766;53.194;5.532;2022-11-20T14:04:21;10.18;;;7.47;;
51556;SDS011;38766;53.194;5.532;2022-11-20T14:07:01;11.55;;;6.95;;
51556;SDS011;38766;53.194;5.532;2022-11-20T14:09:31;11.43;;;7.75;;
51556;SDS011;38766;53.194;5.532;2022-11-20T14:11:57;11.13;;;7.03;;
51556;SDS011;38766;53.194;5.532;2022-11-20T14:14:27;11.95;;;6.70;;
51556;SDS011;38766;53.194;5.532;2022-11-20T14:19:48;11.93;;;7.72;;
51556;SDS011;38766;53.194;5.532;2022-11-20T14:22:23;12.52;;;8.18;;
51556;SDS011;38766;53.194;5.532;2022-11-20T14:25:06;10.52;;;7.70;;
51556;SDS011;38766;53.194;5.532;2022-11-20T14:27:44;12.45;;;7.82;;
51556;SDS011;38766;53.194;5.532;2022-11-20T14:30:16;11.10;;;7.90;;
51556;SDS011;38766;53.194;5.532;2022-11-20T14:32:44;10.98;;;7.70;;
51556;SDS011;38766;53.194;5.532;2022-11-20T14:35:13;14.57;;;8.88;;
51556;SDS011;38766;53.194;5.532;2022-11-20T14:37:48;12.18;;;8.30;;
51556;SDS011;38766;53.194;5.532;2022-11-20T14:42:57;15.18;;;8.63;;
51556;SDS011;38766;53.194;5.532;2022-11-20T14:45:24;12.60;;;7.82;;
51556;SDS011;38766;53.194;5.532;2022-11-20T14:47:53;13.15;;;8.98;;
51556;SDS011;38766;53.194;5.532;2022-11-20T14:50:25;18.02;;;10.82;;
51556;SDS011;38766;53.194;5.532;2022-11-20T14:52:56;17.10;;;10.90;;
51556;SDS011;38766;53.194;5.532;2022-11-20T14:55:32;12.68;;;8.65;;
51556;SDS011;38766;53.194;5.532;2022-11-20T14:58:21;12.90;;;8.70;;
51556;SDS011;38766;53.194;5.532;2022-11-20T15:00:59;15.45;;;9.60;;
51556;SDS011;38766;53.194;5.532;2022-11-20T15:03:40;15.13;;;8.80;;
51556;SDS011;38766;53.194;5.532;2022-11-20T15:06:10;13.05;;;8.57;;
51556;SDS011;38766;53.194;5.532;2022-11-20T15:08:37;14.35;;;9.32;;
51556;SDS011;38766;53.194;5.532;2022-11-20T15:11:03;12.43;;;8.18;;
51556;SDS011;38766;53.194;5.532;2022-11-20T15:13:43;14.65;;;9.15;;
51556;SDS011;38766;53.194;5.532;2022-11-20T15:16:13;12.85;;;8.63;;
51556;SDS011;38766;53.194;5.532;2022-11-20T15:18:45;15.43;;;9.25;;
51556;SDS011;38766;53.194;5.532;2022-11-20T15:21:12;11.75;;;8.80;;
51556;SDS011;38766;53.194;5.532;2022-11-20T15:23:39;15.73;;;9.25;;
51556;SDS011;38766;53.194;5.532;2022-11-20T15:26:06;13.48;;;8.93;;
51556;SDS011;38766;53.194;5.532;2022-11-20T15:28:36;13.25;;;8.07;;
51556;SDS011;38766;53.194;5.532;2022-11-20T15:31:05;13.98;;;8.88;;
51556;SDS011;38766;53.194;5.532;2022-11-20T15:33:32;14.40;;;8.60;;
51556;SDS011;38766;53.194;5.532;2022-11-20T15:35:58;13.68;;;9.02;;
51556;SDS011;38766;53.194;5.532;2022-11-20T15:38:24;13.48;;;9.05;;
51556;SDS011;38766;53.194;5.532;2022-11-20T15:40:50;13.82;;;8.25;;
51556;SDS011;38766;53.194;5.532;2022-11-20T15:43:16;12.93;;;8.73;;
51556;SDS011;38766;53.194;5.532;2022-11-20T15:45:45;12.25;;;8.30;;
51556;SDS011;38766;53.194;5.532;2022-11-20T15:48:18;14.82;;;9.85;;
51556;SDS011;38766;53.194;5.532;2022-11-20T15:50:57;14.60;;;9.32;;
51556;SDS011;38766;53.194;5.532;2022-11-20T15:53:27;14.30;;;9.02;;
51556;SDS011;38766;53.194;5.532;2022-11-20T15:55:52;17.55;;;7.93;;
51556;SDS011;38766;53.194;5.532;2022-11-20T15:58:18;13.55;;;8.32;;
51556;SDS011;38766;53.194;5.532;2022-11-20T16:00:44;15.25;;;9.00;;
51556;SDS011;38766;53.194;5.532;2022-11-20T16:03:11;12.80;;;8.57;;
51556;SDS011;38766;53.194;5.532;2022-11-20T16:05:38;12.40;;;8.43;;
51556;SDS011;38766;53.194;5.532;2022-11-20T16:08:03;13.27;;;9.32;;
51556;SDS011;38766;53.194;5.532;2022-11-20T16:10:29;12.25;;;8.15;;
51556;SDS011;38766;53.194;5.532;2022-11-20T16:12:55;19.52;;;11.40;;
51556;SDS011;38766;53.194;5.532;2022-11-20T16:15:39;15.07;;;9.10;;
51556;SDS011;38766;53.194;5.532;2022-11-20T16:18:12;13.77;;;9.23;;
51556;SDS011;38766;53.194;5.532;2022-11-20T16:20:39;12.50;;;8.77;;